sensor_id;sensor_type;location;lat;lon;timestamp;P1;durP1;ratioP1;P2;durP2;ratioP2
21611;SDS011;47005;52.292;13.452;2023-02-23T00:00:27;22.30;;;8.93;;
21611;SDS011;47005;52.292;13.452;2023-02-23T00:02:56;17.33;;;7.07;;
21611;SDS011;47005;52.292;13.452;2023-02-23T00:05:25;24.43;;;8.80;;
21611;SDS011;47005;52.292;13.452;2023-02-23T00:07:52;25.83;;;9.10;;
21611;SDS011;47005;52.292;13.452;2023-02-23T00:10:18;19.93;;;8.10;;
21611;SDS011;47005;52.292;13.452;2023-02-23T00:12:45;22.40;;;9.90;;
21611;SDS011;47005;52.292;13.452;2023-02-23T00:15:13;24.63;;;8.93;;
21611;SDS011;47005;52.292;13.452;2023-02-23T00:17:39;27.83;;;9.53;;
21611;SDS011;47005;52.292;13.452;2023-02-23T00:20:06;28.37;;;9.60;;
21611;SDS011;47005;52.292;13.452;2023-02-23T00:22:37;17.43;;;8.30;;
21611;SDS011;47005;52.292;13.452;2023-02-23T00:25:04;21.50;;;9.77;;
21611;SDS011;47005;52.292;13.452;2023-02-23T00:27:31;27.80;;;9.10;;
21611;SDS011;47005;52.292;13.452;2023-02-23T00:29:57;20.70;;;9.43;;
21611;SDS011;47005;52.292;13.452;2023-02-23T00:32:23;22.27;;;9.40;;
21611;SDS011;47005;52.292;13.452;2023-02-23T00:34:48;23.00;;;9.30;;
21611;SDS011;47005;52.292;13.452;2023-02-23T00:37:14;22.43;;;8.93;;
21611;SDS011;47005;52.292;13.452;2023-02-23T00:39:40;22.10;;;9.13;;
21611;SDS011;47005;52.292;13.452;2023-02-23T00:42:06;27.50;;;10.00;;
21611;SDS011;47005;52.292;13.452;2023-02-23T00:44:32;20.90;;;9.27;;
21611;SDS011;47005;52.292;13.452;2023-02-23T00:46:59;18.60;;;9.73;;
21611;SDS011;47005;52.292;13.452;2023-02-23T00:49:25;29.37;;;11.00;;
21611;SDS011;47005;52.292;13.452;2023-02-23T00:51:50;36.93;;;10.87;;
21611;SDS011;47005;52.292;13.452;2023-02-23T00:54:17;24.63;;;9.30;;
21611;SDS011;47005;52.292;13.452;2023-02-23T00:56:44;22.10;;;10.17;;
21611;SDS011;47005;52.292;13.452;2023-02-23T00:59:10;18.70;;;9.77;;
21611;SDS011;47005;52.292;13.452;2023-02-23T01:01:37;24.03;;;11.00;;
21611;SDS011;47005;52.292;13.452;2023-02-23T01:04:05;20.93;;;9.70;;
21611;SDS011;47005;52.292;13.452;2023-02-23T01:06:31;23.47;;;10.47;;
21611;SDS011;47005;52.292;13.452;2023-02-23T01:08:57;18.83;;;9.23;;
21611;SDS011;47005;52.292;13.452;2023-02-23T01:11:23;28.53;;;11.37;;
21611;SDS011;47005;52.292;13.452;2023-02-23T01:13:56;24.33;;;11.37;;
21611;SDS011;47005;52.292;13.452;2023-02-23T01:16:23;22.07;;;11.03;;
21611;SDS011;47005;52.292;13.452;2023-02-23T01:18:52;22.90;;;11.07;;
21611;SDS011;47005;52.292;13.452;2023-02-23T01:21:29;22.90;;;10.87;;
21611;SDS011;47005;52.292;13.452;2023-02-23T01:23:59;21.50;;;10.70;;
21611;SDS011;47005;52.292;13.452;2023-02-23T01:26:27;25.20;;;12.60;;
21611;SDS011;47005;52.292;13.452;2023-02-23T01:28:58;27.93;;;12.07;;
21611;SDS011;47005;52.292;13.452;2023-02-23T01:31:27;23.13;;;10.70;;
21611;SDS011;47005;52.292;13.452;2023-02-23T01:33:55;27.53;;;10.53;;
21611;SDS011;47005;52.292;13.452;2023-02-23T01:36:22;20.83;;;11.33;;
21611;SDS011;47005;52.292;13.452;2023-02-23T01:38:49;21.23;;;10.90;;
21611;SDS011;47005;52.292;13.452;2023-02-23T01:41:16;25.47;;;11.90;;
21611;SDS011;47005;52.292;13.452;2023-02-23T01:43:54;22.17;;;12.87;;
21611;SDS011;47005;52.292;13.452;2023-02-23T01:46:26;22.47;;;11.13;;
21611;SDS011;47005;52.292;13.452;2023-02-23T01:48:52;19.87;;;11.70;;
21611;SDS011;47005;52.292;13.452;2023-02-23T01:51:20;24.17;;;11.20;;
21611;SDS011;47005;52.292;13.452;2023-02-23T01:56:50;25.93;;;11.90;;
21611;SDS011;47005;52.292;13.452;2023-02-23T01:59:22;18.47;;;10.93;;
21611;SDS011;47005;52.292;13.452;2023-02-23T02:01:52;23.37;;;11.30;;
21611;SDS011;47005;52.292;13.452;2023-02-23T02:04:19;25.37;;;12.57;;
21611;SDS011;47005;52.292;13.452;2023-02-23T02:06:46;27.97;;;12.77;;
21611;SDS011;47005;52.292;13.452;2023-02-23T02:09:16;21.13;;;11.40;;
21611;SDS011;47005;52.292;13.452;2023-02-23T02:11:42;28.33;;;13.97;;
21611;SDS011;47005;52.292;13.452;2023-02-23T02:14:17;25.50;;;12.47;;
21611;SDS011;47005;52.292;13.452;2023-02-23T02:17:10;23.57;;;11.17;;
21611;SDS011;47005;52.292;13.452;2023-02-23T02:42:43;24.67;;;12.00;;
21611;SDS011;47005;52.292;13.452;2023-02-23T02:47:59;23.70;;;11.73;;
21611;SDS011;47005;52.292;13.452;2023-02-23T02:53:08;26.80;;;11.83;;
21611;SDS011;47005;52.292;13.452;2023-02-23T02:55:37;26.73;;;12.70;;
21611;SDS011;47005;52.292;13.452;2023-02-23T02:58:07;33.30;;;13.70;;
21611;SDS011;47005;52.292;13.452;2023-02-23T03:00:37;21.80;;;11.43;;
21611;SDS011;47005;52.292;13.452;2023-02-23T03:03:39;21.63;;;11.87;;
21611;SDS011;47005;52.292;13.452;2023-02-23T03:06:28;30.87;;;13.03;;
21611;SDS011;47005;52.292;13.452;2023-02-23T03:12:26;24.27;;;12.13;;
21611;SDS011;47005;52.292;13.452;2023-02-23T03:21:32;22.83;;;11.90;;
21611;SDS011;47005;52.292;13.452;2023-02-23T03:33:49;31.90;;;13.57;;
21611;SDS011;47005;52.292;13.452;2023-02-23T03:36:41;28.77;;;12.17;;
21611;SDS011;47005;52.292;13.452;2023-02-23T03:39:36;22.17;;;13.43;;
21611;SDS011;47005;52.292;13.452;2023-02-23T03:42:24;27.33;;;12.93;;
21611;SDS011;47005;52.292;13.452;2023-02-23T03:45:13;25.70;;;12.67;;
21611;SDS011;47005;52.292;13.452;2023-02-23T03:48:01;24.00;;;13.07;;
21611;SDS011;47005;52.292;13.452;2023-02-23T03:50:49;30.97;;;15.10;;
21611;SDS011;47005;52.292;13.452;2023-02-23T03:54:11;29.37;;;13.40;;
21611;SDS011;47005;52.292;13.452;2023-02-23T03:56:51;33.47;;;14.83;;
21611;SDS011;47005;52.292;13.452;2023-02-23T03:59:42;26.33;;;14.50;;
21611;SDS011;47005;52.292;13.452;2023-02-23T04:02:30;25.80;;;13.23;;
21611;SDS011;47005;52.292;13.452;2023-02-23T04:05:17;29.30;;;14.40;;
21611;SDS011;47005;52.292;13.452;2023-02-23T04:08:05;24.60;;;13.47;;
21611;SDS011;47005;52.292;13.452;2023-02-23T04:10:57;28.30;;;12.43;;
21611;SDS011;47005;52.292;13.452;2023-02-23T04:13:47;26.93;;;12.53;;
21611;SDS011;47005;52.292;13.452;2023-02-23T04:16:19;31.43;;;13.23;;
21611;SDS011;47005;52.292;13.452;2023-02-23T04:18:44;21.93;;;13.97;;
21611;SDS011;47005;52.292;13.452;2023-02-23T04:21:10;30.20;;;12.93;;
21611;SDS011;47005;52.292;13.452;2023-02-23T04:23:36;29.97;;;14.17;;
21611;SDS011;47005;52.292;13.452;2023-02-23T04:26:04;30.50;;;13.77;;
21611;SDS011;47005;52.292;13.452;2023-02-23T04:28:30;25.10;;;13.97;;
21611;SDS011;47005;52.292;13.452;2023-02-23T04:30:55;29.77;;;14.60;;
21611;SDS011;47005;52.292;13.452;2023-02-23T04:33:21;32.20;;;14.47;;
21611;SDS011;47005;52.292;13.452;2023-02-23T04:35:50;27.47;;;14.57;;
21611;SDS011;47005;52.292;13.452;2023-02-23T04:38:17;28.23;;;13.43;;
21611;SDS011;47005;52.292;13.452;2023-02-23T04:40:44;28.30;;;13.83;;
21611;SDS011;47005;52.292;13.452;2023-02-23T04:43:10;24.73;;;13.33;;
21611;SDS011;47005;52.292;13.452;2023-02-23T04:45:37;23.10;;;12.97;;
21611;SDS011;47005;52.292;13.452;2023-02-23T04:48:02;26.57;;;14.40;;
21611;SDS011;47005;52.292;13.452;2023-02-23T04:50:28;23.60;;;12.80;;
21611;SDS011;47005;52.292;13.452;2023-02-23T04:52:54;34.17;;;14.77;;
21611;SDS011;47005;52.292;13.452;2023-02-23T04:55:21;34.50;;;14.77;;
21611;SDS011;47005;52.292;13.452;2023-02-23T04:57:48;20.93;;;13.10;;
21611;SDS011;47005;52.292;13.452;2023-02-23T05:00:15;22.43;;;12.87;;
21611;SDS011;47005;52.292;13.452;2023-02-23T05:02:42;29.57;;;14.63;;
21611;SDS011;47005;52.292;13.452;2023-02-23T05:05:07;24.80;;;14.07;;
21611;SDS011;47005;52.292;13.452;2023-02-23T05:07:33;21.60;;;13.93;;
21611;SDS011;47005;52.292;13.452;2023-02-23T05:10:00;26.90;;;13.50;;
21611;SDS011;47005;52.292;13.452;2023-02-23T05:12:25;34.47;;;15.53;;
21611;SDS011;47005;52.292;13.452;2023-02-23T05:14:51;24.37;;;15.57;;
21611;SDS011;47005;52.292;13.452;2023-02-23T05:17:17;28.43;;;12.13;;
21611;SDS011;47005;52.292;13.452;2023-02-23T05:19:42;26.60;;;14.37;;
21611;SDS011;47005;52.292;13.452;2023-02-23T05:22:08;24.57;;;12.07;;
21611;SDS011;47005;52.292;13.452;2023-02-23T05:24:37;26.10;;;14.27;;
21611;SDS011;47005;52.292;13.452;2023-02-23T05:27:10;26.47;;;13.23;;
21611;SDS011;47005;52.292;13.452;2023-02-23T05:29:37;29.07;;;14.77;;
21611;SDS011;47005;52.292;13.452;2023-02-23T05:32:03;25.67;;;14.17;;
21611;SDS011;47005;52.292;13.452;2023-02-23T05:34:29;24.60;;;14.10;;
21611;SDS011;47005;52.292;13.452;2023-02-23T05:36:55;31.23;;;12.77;;
21611;SDS011;47005;52.292;13.452;2023-02-23T05:39:20;28.80;;;14.97;;
21611;SDS011;47005;52.292;13.452;2023-02-23T05:41:46;28.47;;;13.93;;
21611;SDS011;47005;52.292;13.452;2023-02-23T05:44:12;25.90;;;13.07;;
21611;SDS011;47005;52.292;13.452;2023-02-23T05:46:37;28.97;;;15.30;;
21611;SDS011;47005;52.292;13.452;2023-02-23T05:49:03;31.93;;;13.67;;
21611;SDS011;47005;52.292;13.452;2023-02-23T05:51:29;27.33;;;14.70;;
21611;SDS011;47005;52.292;13.452;2023-02-23T05:53:56;28.50;;;14.83;;
21611;SDS011;47005;52.292;13.452;2023-02-23T05:56:22;25.63;;;13.47;;
21611;SDS011;47005;52.292;13.452;2023-02-23T05:58:58;29.27;;;14.00;;
21611;SDS011;47005;52.292;13.452;2023-02-23T06:01:24;38.60;;;15.20;;
21611;SDS011;47005;52.292;13.452;2023-02-23T06:03:51;26.50;;;14.00;;
21611;SDS011;47005;52.292;13.452;2023-02-23T06:06:17;31.20;;;15.07;;
21611;SDS011;47005;52.292;13.452;2023-02-23T06:08:43;31.53;;;13.33;;
21611;SDS011;47005;52.292;13.452;2023-02-23T06:11:09;24.93;;;14.37;;
21611;SDS011;47005;52.292;13.452;2023-02-23T06:13:35;31.37;;;13.90;;
21611;SDS011;47005;52.292;13.452;2023-02-23T06:16:00;33.77;;;14.37;;
21611;SDS011;47005;52.292;13.452;2023-02-23T06:18:27;21.00;;;13.67;;
21611;SDS011;47005;52.292;13.452;2023-02-23T06:20:53;25.70;;;13.80;;
21611;SDS011;47005;52.292;13.452;2023-02-23T06:23:19;28.70;;;15.37;;
21611;SDS011;47005;52.292;13.452;2023-02-23T06:25:45;26.93;;;13.70;;
21611;SDS011;47005;52.292;13.452;2023-02-23T06:28:11;26.87;;;14.10;;
21611;SDS011;47005;52.292;13.452;2023-02-23T06:30:37;30.37;;;14.47;;
21611;SDS011;47005;52.292;13.452;2023-02-23T06:33:04;23.90;;;14.93;;
21611;SDS011;47005;52.292;13.452;2023-02-23T06:35:30;32.97;;;15.20;;
21611;SDS011;47005;52.292;13.452;2023-02-23T06:37:56;32.57;;;16.67;;
21611;SDS011;47005;52.292;13.452;2023-02-23T06:40:22;23.37;;;13.17;;
21611;SDS011;47005;52.292;13.452;2023-02-23T06:42:48;25.00;;;14.50;;
21611;SDS011;47005;52.292;13.452;2023-02-23T06:45:14;27.90;;;14.13;;
21611;SDS011;47005;52.292;13.452;2023-02-23T06:47:40;31.07;;;14.37;;
21611;SDS011;47005;52.292;13.452;2023-02-23T06:50:06;27.10;;;14.00;;
21611;SDS011;47005;52.292;13.452;2023-02-23T06:52:33;27.37;;;14.60;;
21611;SDS011;47005;52.292;13.452;2023-02-23T06:54:58;28.50;;;14.37;;
21611;SDS011;47005;52.292;13.452;2023-02-23T06:57:24;25.47;;;14.30;;
21611;SDS011;47005;52.292;13.452;2023-02-23T06:59:50;28.00;;;14.77;;
21611;SDS011;47005;52.292;13.452;2023-02-23T07:02:15;33.23;;;15.07;;
21611;SDS011;47005;52.292;13.452;2023-02-23T07:04:41;28.33;;;15.23;;
21611;SDS011;47005;52.292;13.452;2023-02-23T07:07:07;22.70;;;13.73;;
21611;SDS011;47005;52.292;13.452;2023-02-23T07:09:33;24.03;;;14.77;;
21611;SDS011;47005;52.292;13.452;2023-02-23T07:11:59;26.00;;;14.87;;
21611;SDS011;47005;52.292;13.452;2023-02-23T07:14:25;31.37;;;14.63;;
21611;SDS011;47005;52.292;13.452;2023-02-23T07:16:50;33.13;;;14.40;;
21611;SDS011;47005;52.292;13.452;2023-02-23T07:19:16;35.67;;;14.70;;
21611;SDS011;47005;52.292;13.452;2023-02-23T07:21:42;28.57;;;13.37;;
21611;SDS011;47005;52.292;13.452;2023-02-23T07:24:07;35.90;;;13.77;;
21611;SDS011;47005;52.292;13.452;2023-02-23T07:26:33;27.93;;;14.50;;
21611;SDS011;47005;52.292;13.452;2023-02-23T07:28:59;27.93;;;14.90;;
21611;SDS011;47005;52.292;13.452;2023-02-23T07:31:25;28.07;;;14.63;;
21611;SDS011;47005;52.292;13.452;2023-02-23T07:33:52;29.70;;;14.23;;
21611;SDS011;47005;52.292;13.452;2023-02-23T07:36:21;23.77;;;15.10;;
21611;SDS011;47005;52.292;13.452;2023-02-23T07:38:48;29.60;;;13.53;;
21611;SDS011;47005;52.292;13.452;2023-02-23T07:41:14;29.67;;;15.33;;
21611;SDS011;47005;52.292;13.452;2023-02-23T07:43:40;31.33;;;14.60;;
21611;SDS011;47005;52.292;13.452;2023-02-23T07:46:06;26.67;;;14.50;;
21611;SDS011;47005;52.292;13.452;2023-02-23T07:48:32;19.40;;;11.93;;
21611;SDS011;47005;52.292;13.452;2023-02-23T07:50:58;23.07;;;13.37;;
21611;SDS011;47005;52.292;13.452;2023-02-23T07:53:24;37.80;;;14.63;;
21611;SDS011;47005;52.292;13.452;2023-02-23T07:55:58;29.57;;;14.40;;
21611;SDS011;47005;52.292;13.452;2023-02-23T07:58:25;24.40;;;13.07;;
21611;SDS011;47005;52.292;13.452;2023-02-23T08:00:51;26.63;;;14.33;;
21611;SDS011;47005;52.292;13.452;2023-02-23T08:03:17;25.50;;;13.23;;
21611;SDS011;47005;52.292;13.452;2023-02-23T08:05:42;22.03;;;12.60;;
21611;SDS011;47005;52.292;13.452;2023-02-23T08:08:09;27.80;;;14.50;;
21611;SDS011;47005;52.292;13.452;2023-02-23T08:10:35;23.07;;;13.43;;
21611;SDS011;47005;52.292;13.452;2023-02-23T08:13:02;30.10;;;14.93;;
21611;SDS011;47005;52.292;13.452;2023-02-23T08:15:27;27.87;;;14.70;;
21611;SDS011;47005;52.292;13.452;2023-02-23T08:17:54;28.57;;;14.17;;
21611;SDS011;47005;52.292;13.452;2023-02-23T08:20:19;27.90;;;13.30;;
21611;SDS011;47005;52.292;13.452;2023-02-23T08:22:45;31.07;;;14.83;;
21611;SDS011;47005;52.292;13.452;2023-02-23T08:25:10;32.90;;;14.93;;
21611;SDS011;47005;52.292;13.452;2023-02-23T08:27:36;32.17;;;14.90;;
21611;SDS011;47005;52.292;13.452;2023-02-23T08:30:03;24.33;;;13.97;;
21611;SDS011;47005;52.292;13.452;2023-02-23T08:32:33;23.57;;;13.17;;
21611;SDS011;47005;52.292;13.452;2023-02-23T08:34:59;28.97;;;14.23;;
21611;SDS011;47005;52.292;13.452;2023-02-23T08:37:27;29.30;;;14.63;;
21611;SDS011;47005;52.292;13.452;2023-02-23T08:39:53;27.60;;;13.47;;
21611;SDS011;47005;52.292;13.452;2023-02-23T08:42:19;25.37;;;14.73;;
21611;SDS011;47005;52.292;13.452;2023-02-23T08:44:45;26.07;;;14.37;;
21611;SDS011;47005;52.292;13.452;2023-02-23T08:47:13;24.30;;;13.53;;
21611;SDS011;47005;52.292;13.452;2023-02-23T08:49:40;23.20;;;13.73;;
21611;SDS011;47005;52.292;13.452;2023-02-23T08:52:06;21.67;;;13.47;;
21611;SDS011;47005;52.292;13.452;2023-02-23T08:54:31;27.73;;;15.03;;
21611;SDS011;47005;52.292;13.452;2023-02-23T08:56:57;26.90;;;14.70;;
21611;SDS011;47005;52.292;13.452;2023-02-23T08:59:23;24.17;;;13.10;;
21611;SDS011;47005;52.292;13.452;2023-02-23T09:01:49;26.07;;;14.37;;
21611;SDS011;47005;52.292;13.452;2023-02-23T09:04:15;25.47;;;14.17;;
21611;SDS011;47005;52.292;13.452;2023-02-23T09:06:42;24.33;;;13.50;;
21611;SDS011;47005;52.292;13.452;2023-02-23T09:09:08;32.33;;;15.07;;
21611;SDS011;47005;52.292;13.452;2023-02-23T09:11:34;31.07;;;14.40;;
21611;SDS011;47005;52.292;13.452;2023-02-23T09:13:59;21.47;;;12.93;;
21611;SDS011;47005;52.292;13.452;2023-02-23T09:16:25;27.00;;;12.67;;
21611;SDS011;47005;52.292;13.452;2023-02-23T09:18:51;25.43;;;13.73;;
21611;SDS011;47005;52.292;13.452;2023-02-23T09:21:17;26.27;;;13.33;;
21611;SDS011;47005;52.292;13.452;2023-02-23T09:23:46;22.30;;;13.83;;
21611;SDS011;47005;52.292;13.452;2023-02-23T09:26:15;35.87;;;14.53;;
21611;SDS011;47005;52.292;13.452;2023-02-23T09:28:42;27.53;;;13.83;;
21611;SDS011;47005;52.292;13.452;2023-02-23T09:31:12;29.37;;;14.63;;
21611;SDS011;47005;52.292;13.452;2023-02-23T09:33:40;27.77;;;13.27;;
21611;SDS011;47005;52.292;13.452;2023-02-23T09:36:07;30.03;;;13.27;;
21611;SDS011;47005;52.292;13.452;2023-02-23T09:38:36;28.30;;;15.63;;
21611;SDS011;47005;52.292;13.452;2023-02-23T09:41:03;22.37;;;12.23;;
21611;SDS011;47005;52.292;13.452;2023-02-23T09:43:43;21.47;;;13.13;;
21611;SDS011;47005;52.292;13.452;2023-02-23T09:49:27;34.43;;;13.77;;
21611;SDS011;47005;52.292;13.452;2023-02-23T09:51:57;21.57;;;12.53;;
21611;SDS011;47005;52.292;13.452;2023-02-23T09:54:25;22.13;;;13.77;;
21611;SDS011;47005;52.292;13.452;2023-02-23T09:56:54;26.83;;;13.70;;
21611;SDS011;47005;52.292;13.452;2023-02-23T09:59:22;23.77;;;13.47;;
21611;SDS011;47005;52.292;13.452;2023-02-23T10:13:19;20.70;;;12.73;;
21611;SDS011;47005;52.292;13.452;2023-02-23T10:15:19;27.60;;;13.13;;
21611;SDS011;47005;52.292;13.452;2023-02-23T10:20:48;25.17;;;14.13;;
21611;SDS011;47005;52.292;13.452;2023-02-23T10:23:42;27.17;;;14.47;;
21611;SDS011;47005;52.292;13.452;2023-02-23T10:26:10;27.53;;;13.77;;
21611;SDS011;47005;52.292;13.452;2023-02-23T10:28:41;24.67;;;13.33;;
21611;SDS011;47005;52.292;13.452;2023-02-23T10:33:48;26.57;;;14.80;;
21611;SDS011;47005;52.292;13.452;2023-02-23T10:36:17;27.23;;;14.60;;
21611;SDS011;47005;52.292;13.452;2023-02-23T10:38:50;22.60;;;14.07;;
21611;SDS011;47005;52.292;13.452;2023-02-23T10:41:15;28.93;;;14.27;;
21611;SDS011;47005;52.292;13.452;2023-02-23T10:43:41;22.40;;;14.53;;
21611;SDS011;47005;52.292;13.452;2023-02-23T10:46:07;22.30;;;13.17;;
21611;SDS011;47005;52.292;13.452;2023-02-23T10:48:43;30.57;;;14.30;;
21611;SDS011;47005;52.292;13.452;2023-02-23T10:51:20;21.30;;;12.77;;
21611;SDS011;47005;52.292;13.452;2023-02-23T10:53:51;27.13;;;15.13;;
21611;SDS011;47005;52.292;13.452;2023-02-23T10:56:18;23.83;;;14.87;;
21611;SDS011;47005;52.292;13.452;2023-02-23T10:58:45;26.70;;;13.73;;
21611;SDS011;47005;52.292;13.452;2023-02-23T11:01:36;27.10;;;15.07;;
21611;SDS011;47005;52.292;13.452;2023-02-23T11:04:13;25.37;;;13.63;;
21611;SDS011;47005;52.292;13.452;2023-02-23T11:06:48;21.70;;;14.07;;
21611;SDS011;47005;52.292;13.452;2023-02-23T11:09:23;23.70;;;14.47;;
21611;SDS011;47005;52.292;13.452;2023-02-23T11:11:58;23.23;;;14.70;;
21611;SDS011;47005;52.292;13.452;2023-02-23T11:14:31;21.30;;;13.13;;
21611;SDS011;47005;52.292;13.452;2023-02-23T11:16:57;23.23;;;15.20;;
21611;SDS011;47005;52.292;13.452;2023-02-23T11:19:34;22.83;;;12.77;;
21611;SDS011;47005;52.292;13.452;2023-02-23T11:22:02;20.97;;;13.40;;
21611;SDS011;47005;52.292;13.452;2023-02-23T11:24:35;20.40;;;13.37;;
21611;SDS011;47005;52.292;13.452;2023-02-23T11:27:05;21.63;;;13.90;;
21611;SDS011;47005;52.292;13.452;2023-02-23T11:29:43;20.47;;;13.60;;
21611;SDS011;47005;52.292;13.452;2023-02-23T11:32:35;24.70;;;13.80;;
21611;SDS011;47005;52.292;13.452;2023-02-23T11:37:46;23.97;;;13.67;;
21611;SDS011;47005;52.292;13.452;2023-02-23T11:45:37;21.07;;;13.60;;
21611;SDS011;47005;52.292;13.452;2023-02-23T11:48:20;21.30;;;13.13;;
21611;SDS011;47005;52.292;13.452;2023-02-23T11:50:47;22.53;;;14.00;;
21611;SDS011;47005;52.292;13.452;2023-02-23T11:53:15;28.27;;;16.07;;
21611;SDS011;47005;52.292;13.452;2023-02-23T11:55:50;22.63;;;13.60;;
21611;SDS011;47005;52.292;13.452;2023-02-23T11:58:53;22.70;;;13.53;;
21611;SDS011;47005;52.292;13.452;2023-02-23T12:01:13;19.43;;;11.67;;
21611;SDS011;47005;52.292;13.452;2023-02-23T12:03:45;27.23;;;14.53;;
21611;SDS011;47005;52.292;13.452;2023-02-23T12:08:54;25.67;;;15.30;;
21611;SDS011;47005;52.292;13.452;2023-02-23T12:11:30;25.53;;;15.07;;
21611;SDS011;47005;52.292;13.452;2023-02-23T12:16:47;27.37;;;15.50;;
21611;SDS011;47005;52.292;13.452;2023-02-23T12:19:21;24.50;;;13.83;;
21611;SDS011;47005;52.292;13.452;2023-02-23T12:27:00;24.50;;;14.43;;
21611;SDS011;47005;52.292;13.452;2023-02-23T12:32:18;25.30;;;13.90;;
21611;SDS011;47005;52.292;13.452;2023-02-23T12:35:00;22.03;;;13.47;;
21611;SDS011;47005;52.292;13.452;2023-02-23T12:37:37;23.73;;;14.13;;
21611;SDS011;47005;52.292;13.452;2023-02-23T12:40:14;27.73;;;14.67;;
21611;SDS011;47005;52.292;13.452;2023-02-23T12:42:45;27.13;;;13.73;;
21611;SDS011;47005;52.292;13.452;2023-02-23T12:45:21;23.87;;;13.30;;
21611;SDS011;47005;52.292;13.452;2023-02-23T12:47:59;24.30;;;14.27;;
21611;SDS011;47005;52.292;13.452;2023-02-23T12:50:38;23.87;;;16.87;;
21611;SDS011;47005;52.292;13.452;2023-02-23T12:53:19;24.83;;;16.43;;
21611;SDS011;47005;52.292;13.452;2023-02-23T12:55:59;26.27;;;15.77;;
21611;SDS011;47005;52.292;13.452;2023-02-23T13:01:08;24.47;;;15.77;;
21611;SDS011;47005;52.292;13.452;2023-02-23T13:09:17;23.77;;;15.83;;
21611;SDS011;47005;52.292;13.452;2023-02-23T13:19:58;24.00;;;15.63;;
21611;SDS011;47005;52.292;13.452;2023-02-23T13:22:39;29.43;;;16.37;;
21611;SDS011;47005;52.292;13.452;2023-02-23T13:25:37;25.23;;;16.73;;
21611;SDS011;47005;52.292;13.452;2023-02-23T13:28:26;27.03;;;17.40;;
21611;SDS011;47005;52.292;13.452;2023-02-23T13:31:01;25.37;;;17.60;;
21611;SDS011;47005;52.292;13.452;2023-02-23T13:33:27;29.87;;;18.23;;
21611;SDS011;47005;52.292;13.452;2023-02-23T13:36:02;26.07;;;18.67;;
21611;SDS011;47005;52.292;13.452;2023-02-23T13:43:59;27.37;;;16.67;;
21611;SDS011;47005;52.292;13.452;2023-02-23T13:51:56;27.57;;;17.93;;
21611;SDS011;47005;52.292;13.452;2023-02-23T13:54:32;29.80;;;19.27;;
21611;SDS011;47005;52.292;13.452;2023-02-23T13:57:04;33.30;;;18.83;;
21611;SDS011;47005;52.292;13.452;2023-02-23T13:59:41;29.43;;;17.80;;
21611;SDS011;47005;52.292;13.452;2023-02-23T14:02:29;24.20;;;16.90;;
21611;SDS011;47005;52.292;13.452;2023-02-23T14:05:06;31.20;;;17.83;;
21611;SDS011;47005;52.292;13.452;2023-02-23T14:07:43;29.03;;;19.37;;
21611;SDS011;47005;52.292;13.452;2023-02-23T14:10:15;25.50;;;17.97;;
21611;SDS011;47005;52.292;13.452;2023-02-23T14:23:32;24.17;;;17.47;;
21611;SDS011;47005;52.292;13.452;2023-02-23T14:29:14;33.70;;;19.30;;
21611;SDS011;47005;52.292;13.452;2023-02-23T14:31:55;28.27;;;19.37;;
21611;SDS011;47005;52.292;13.452;2023-02-23T14:34:41;28.57;;;17.47;;
21611;SDS011;47005;52.292;13.452;2023-02-23T14:40:12;29.57;;;18.43;;
21611;SDS011;47005;52.292;13.452;2023-02-23T14:42:42;32.30;;;20.30;;
21611;SDS011;47005;52.292;13.452;2023-02-23T14:45:17;33.93;;;18.03;;
21611;SDS011;47005;52.292;13.452;2023-02-23T14:47:51;31.00;;;18.07;;
21611;SDS011;47005;52.292;13.452;2023-02-23T14:50:29;27.00;;;18.57;;
21611;SDS011;47005;52.292;13.452;2023-02-23T14:52:57;32.77;;;19.20;;
21611;SDS011;47005;52.292;13.452;2023-02-23T14:55:29;28.20;;;18.17;;
21611;SDS011;47005;52.292;13.452;2023-02-23T14:57:59;31.67;;;19.20;;
21611;SDS011;47005;52.292;13.452;2023-02-23T15:00:45;27.07;;;17.30;;
21611;SDS011;47005;52.292;13.452;2023-02-23T15:03:12;27.00;;;19.80;;
21611;SDS011;47005;52.292;13.452;2023-02-23T15:05:42;39.20;;;19.10;;
21611;SDS011;47005;52.292;13.452;2023-02-23T15:08:14;33.87;;;21.13;;
21611;SDS011;47005;52.292;13.452;2023-02-23T15:10:43;32.60;;;21.40;;
21611;SDS011;47005;52.292;13.452;2023-02-23T15:15:54;39.60;;;22.93;;
21611;SDS011;47005;52.292;13.452;2023-02-23T15:18:23;33.67;;;21.93;;
21611;SDS011;47005;52.292;13.452;2023-02-23T15:20:56;36.97;;;23.33;;
21611;SDS011;47005;52.292;13.452;2023-02-23T15:23:23;38.60;;;25.57;;
21611;SDS011;47005;52.292;13.452;2023-02-23T15:25:48;41.07;;;26.73;;
21611;SDS011;47005;52.292;13.452;2023-02-23T15:28:26;46.17;;;27.90;;
21611;SDS011;47005;52.292;13.452;2023-02-23T15:30:54;48.97;;;29.83;;
21611;SDS011;47005;52.292;13.452;2023-02-23T15:33:21;48.17;;;28.37;;
21611;SDS011;47005;52.292;13.452;2023-02-23T15:36:03;46.47;;;30.03;;
21611;SDS011;47005;52.292;13.452;2023-02-23T15:38:52;45.50;;;28.63;;
21611;SDS011;47005;52.292;13.452;2023-02-23T15:41:27;52.50;;;29.87;;
21611;SDS011;47005;52.292;13.452;2023-02-23T15:44:22;45.57;;;28.87;;
21611;SDS011;47005;52.292;13.452;2023-02-23T15:46:57;46.07;;;28.80;;
21611;SDS011;47005;52.292;13.452;2023-02-23T15:49:26;48.00;;;31.63;;
21611;SDS011;47005;52.292;13.452;2023-02-23T15:51:59;45.00;;;29.60;;
21611;SDS011;47005;52.292;13.452;2023-02-23T15:57:05;46.20;;;27.63;;
21611;SDS011;47005;52.292;13.452;2023-02-23T15:59:44;43.30;;;27.63;;
21611;SDS011;47005;52.292;13.452;2023-02-23T16:02:22;45.37;;;28.87;;
21611;SDS011;47005;52.292;13.452;2023-02-23T16:04:48;45.23;;;28.97;;
21611;SDS011;47005;52.292;13.452;2023-02-23T16:07:21;38.97;;;28.53;;
21611;SDS011;47005;52.292;13.452;2023-02-23T16:12:20;46.47;;;26.70;;
21611;SDS011;47005;52.292;13.452;2023-02-23T16:14:52;42.50;;;30.43;;
21611;SDS011;47005;52.292;13.452;2023-02-23T16:17:25;46.80;;;28.67;;
21611;SDS011;47005;52.292;13.452;2023-02-23T16:23:02;45.83;;;27.17;;
21611;SDS011;47005;52.292;13.452;2023-02-23T16:25:29;47.20;;;29.37;;
21611;SDS011;47005;52.292;13.452;2023-02-23T16:28:03;51.63;;;32.33;;
21611;SDS011;47005;52.292;13.452;2023-02-23T16:30:40;56.07;;;33.03;;
21611;SDS011;47005;52.292;13.452;2023-02-23T16:36:10;50.17;;;33.53;;
21611;SDS011;47005;52.292;13.452;2023-02-23T16:38:55;54.90;;;31.03;;
21611;SDS011;47005;52.292;13.452;2023-02-23T16:41:32;54.07;;;29.97;;
21611;SDS011;47005;52.292;13.452;2023-02-23T16:44:00;47.03;;;30.47;;
21611;SDS011;47005;52.292;13.452;2023-02-23T16:46:29;59.07;;;33.47;;
21611;SDS011;47005;52.292;13.452;2023-02-23T16:49:01;58.90;;;33.83;;
21611;SDS011;47005;52.292;13.452;2023-02-23T16:51:34;52.07;;;31.87;;
21611;SDS011;47005;52.292;13.452;2023-02-23T16:54:00;57.47;;;33.40;;
21611;SDS011;47005;52.292;13.452;2023-02-23T16:56:27;52.70;;;32.37;;
21611;SDS011;47005;52.292;13.452;2023-02-23T16:58:56;53.63;;;32.37;;